sensor_id;sensor_type;location;lat;lon;timestamp;P1;durP1;ratioP1;P2;durP2;ratioP2
42296;SDS011;28985;47.456;19.016;2022-07-29T00:02:16;80.43;;;77.13;;
42296;SDS011;28985;47.456;19.016;2022-07-29T00:04:42;86.82;;;83.30;;
42296;SDS011;28985;47.456;19.016;2022-07-29T00:07:09;86.13;;;82.78;;
42296;SDS011;28985;47.456;19.016;2022-07-29T00:09:39;79.47;;;76.07;;
42296;SDS011;28985;47.456;19.016;2022-07-29T00:12:17;82.15;;;78.88;;
42296;SDS011;28985;47.456;19.016;2022-07-29T00:14:52;83.30;;;79.90;;
42296;SDS011;28985;47.456;19.016;2022-07-29T00:17:20;84.65;;;81.50;;
42296;SDS011;28985;47.456;19.016;2022-07-29T00:19:46;86.30;;;82.90;;
42296;SDS011;28985;47.456;19.016;2022-07-29T00:22:13;80.55;;;77.22;;
42296;SDS011;28985;47.456;19.016;2022-07-29T00:24:40;77.63;;;74.45;;
42296;SDS011;28985;47.456;19.016;2022-07-29T00:27:06;84.43;;;81.18;;
42296;SDS011;28985;47.456;19.016;2022-07-29T00:29:33;88.95;;;85.53;;
42296;SDS011;28985;47.456;19.016;2022-07-29T00:32:01;85.15;;;81.43;;
42296;SDS011;28985;47.456;19.016;2022-07-29T00:34:28;84.55;;;81.28;;
42296;SDS011;28985;47.456;19.016;2022-07-29T00:37:13;81.53;;;77.88;;
42296;SDS011;28985;47.456;19.016;2022-07-29T00:39:40;84.82;;;81.40;;
42296;SDS011;28985;47.456;19.016;2022-07-29T00:42:06;85.35;;;82.07;;
42296;SDS011;28985;47.456;19.016;2022-07-29T00:44:37;82.93;;;79.72;;
42296;SDS011;28985;47.456;19.016;2022-07-29T00:47:05;78.72;;;75.65;;
42296;SDS011;28985;47.456;19.016;2022-07-29T00:49:33;83.82;;;80.60;;
42296;SDS011;28985;47.456;19.016;2022-07-29T00:52:01;81.35;;;78.07;;
42296;SDS011;28985;47.456;19.016;2022-07-29T00:54:29;77.85;;;74.93;;
42296;SDS011;28985;47.456;19.016;2022-07-29T00:56:57;79.28;;;76.28;;
42296;SDS011;28985;47.456;19.016;2022-07-29T00:59:28;83.57;;;80.28;;
42296;SDS011;28985;47.456;19.016;2022-07-29T01:02:00;76.43;;;73.50;;
42296;SDS011;28985;47.456;19.016;2022-07-29T01:04:28;78.53;;;75.22;;
42296;SDS011;28985;47.456;19.016;2022-07-29T01:06:55;82.38;;;79.13;;
42296;SDS011;28985;47.456;19.016;2022-07-29T01:09:22;92.50;;;88.80;;
42296;SDS011;28985;47.456;19.016;2022-07-29T01:12:10;83.63;;;80.47;;
42296;SDS011;28985;47.456;19.016;2022-07-29T01:14:39;87.75;;;84.35;;
42296;SDS011;28985;47.456;19.016;2022-07-29T01:17:09;91.05;;;87.55;;
42296;SDS011;28985;47.456;19.016;2022-07-29T01:25:26;90.95;;;87.38;;
42296;SDS011;28985;47.456;19.016;2022-07-29T01:31:00;92.25;;;88.78;;
42296;SDS011;28985;47.456;19.016;2022-07-29T01:33:31;94.47;;;90.95;;
42296;SDS011;28985;47.456;19.016;2022-07-29T01:38:45;79.93;;;76.90;;
42296;SDS011;28985;47.456;19.016;2022-07-29T01:41:20;93.80;;;90.00;;
42296;SDS011;28985;47.456;19.016;2022-07-29T01:43:53;83.25;;;79.97;;
42296;SDS011;28985;47.456;19.016;2022-07-29T01:46:45;88.35;;;84.75;;
42296;SDS011;28985;47.456;19.016;2022-07-29T01:49:16;93.38;;;89.78;;
42296;SDS011;28985;47.456;19.016;2022-07-29T01:51:57;96.25;;;92.45;;
42296;SDS011;28985;47.456;19.016;2022-07-29T01:54:41;84.35;;;81.00;;
42296;SDS011;28985;47.456;19.016;2022-07-29T01:57:13;93.40;;;89.72;;
42296;SDS011;28985;47.456;19.016;2022-07-29T01:59:43;89.40;;;85.97;;
42296;SDS011;28985;47.456;19.016;2022-07-29T02:02:11;91.13;;;87.57;;
42296;SDS011;28985;47.456;19.016;2022-07-29T02:04:41;92.32;;;88.63;;
42296;SDS011;28985;47.456;19.016;2022-07-29T02:07:11;88.05;;;84.53;;
42296;SDS011;28985;47.456;19.016;2022-07-29T02:09:42;87.15;;;83.85;;
42296;SDS011;28985;47.456;19.016;2022-07-29T02:12:11;90.55;;;86.95;;
42296;SDS011;28985;47.456;19.016;2022-07-29T02:14:41;98.78;;;94.88;;
42296;SDS011;28985;47.456;19.016;2022-07-29T02:17:11;85.45;;;82.22;;
42296;SDS011;28985;47.456;19.016;2022-07-29T02:19:39;94.90;;;91.15;;
42296;SDS011;28985;47.456;19.016;2022-07-29T02:22:09;95.50;;;91.63;;
42296;SDS011;28985;47.456;19.016;2022-07-29T02:24:38;97.32;;;93.40;;
42296;SDS011;28985;47.456;19.016;2022-07-29T02:27:06;87.07;;;83.78;;
42296;SDS011;28985;47.456;19.016;2022-07-29T02:29:34;101.10;;;97.07;;
42296;SDS011;28985;47.456;19.016;2022-07-29T02:32:03;108.15;;;103.07;;
42296;SDS011;28985;47.456;19.016;2022-07-29T02:34:30;100.82;;;96.15;;
42296;SDS011;28985;47.456;19.016;2022-07-29T02:37:00;119.78;;;113.93;;
42296;SDS011;28985;47.456;19.016;2022-07-29T02:39:28;89.70;;;85.97;;
42296;SDS011;28985;47.456;19.016;2022-07-29T02:42:01;86.47;;;82.97;;
42296;SDS011;28985;47.456;19.016;2022-07-29T02:44:31;93.70;;;88.97;;
42296;SDS011;28985;47.456;19.016;2022-07-29T02:47:13;90.03;;;86.05;;
42296;SDS011;28985;47.456;19.016;2022-07-29T02:50:00;111.38;;;106.07;;
42296;SDS011;28985;47.456;19.016;2022-07-29T02:56:07;98.22;;;94.05;;
42296;SDS011;28985;47.456;19.016;2022-07-29T02:58:27;88.20;;;84.45;;
42296;SDS011;28985;47.456;19.016;2022-07-29T03:00:57;95.80;;;91.88;;
42296;SDS011;28985;47.456;19.016;2022-07-29T03:03:29;83.90;;;80.40;;
42296;SDS011;28985;47.456;19.016;2022-07-29T03:06:00;90.72;;;87.30;;
42296;SDS011;28985;47.456;19.016;2022-07-29T03:08:28;95.75;;;91.97;;
42296;SDS011;28985;47.456;19.016;2022-07-29T03:10:57;112.63;;;108.18;;
42296;SDS011;28985;47.456;19.016;2022-07-29T03:13:24;94.47;;;90.40;;
42296;SDS011;28985;47.456;19.016;2022-07-29T03:15:52;96.22;;;92.25;;
42296;SDS011;28985;47.456;19.016;2022-07-29T03:18:19;90.68;;;87.00;;
42296;SDS011;28985;47.456;19.016;2022-07-29T03:20:46;96.35;;;91.68;;
42296;SDS011;28985;47.456;19.016;2022-07-29T03:23:17;98.72;;;93.97;;
42296;SDS011;28985;47.456;19.016;2022-07-29T03:25:46;100.20;;;95.90;;
42296;SDS011;28985;47.456;19.016;2022-07-29T03:28:13;130.68;;;124.88;;
42296;SDS011;28985;47.456;19.016;2022-07-29T03:30:41;94.10;;;89.43;;
42296;SDS011;28985;47.456;19.016;2022-07-29T03:33:09;80.18;;;76.90;;
42296;SDS011;28985;47.456;19.016;2022-07-29T03:35:39;72.55;;;69.57;;
42296;SDS011;28985;47.456;19.016;2022-07-29T03:38:05;77.78;;;74.57;;
42296;SDS011;28985;47.456;19.016;2022-07-29T03:40:49;97.82;;;93.93;;
42296;SDS011;28985;47.456;19.016;2022-07-29T03:43:17;72.30;;;69.20;;
42296;SDS011;28985;47.456;19.016;2022-07-29T03:45:47;77.47;;;73.70;;
42296;SDS011;28985;47.456;19.016;2022-07-29T03:48:16;79.63;;;76.15;;
42296;SDS011;28985;47.456;19.016;2022-07-29T03:50:45;89.97;;;85.75;;
42296;SDS011;28985;47.456;19.016;2022-07-29T03:53:12;108.78;;;104.32;;
42296;SDS011;28985;47.456;19.016;2022-07-29T03:55:45;107.05;;;102.53;;
42296;SDS011;28985;47.456;19.016;2022-07-29T03:58:17;104.32;;;99.80;;
42296;SDS011;28985;47.456;19.016;2022-07-29T04:00:45;90.28;;;86.68;;
42296;SDS011;28985;47.456;19.016;2022-07-29T04:03:12;100.78;;;96.00;;
42296;SDS011;28985;47.456;19.016;2022-07-29T04:05:41;64.45;;;61.47;;
42296;SDS011;28985;47.456;19.016;2022-07-29T04:08:07;81.90;;;78.38;;
42296;SDS011;28985;47.456;19.016;2022-07-29T04:10:34;63.20;;;60.30;;
42296;SDS011;28985;47.456;19.016;2022-07-29T04:13:01;74.22;;;71.10;;
42296;SDS011;28985;47.456;19.016;2022-07-29T04:15:27;56.75;;;54.50;;
42296;SDS011;28985;47.456;19.016;2022-07-29T04:17:57;70.95;;;68.03;;
42296;SDS011;28985;47.456;19.016;2022-07-29T04:20:23;78.35;;;75.20;;
42296;SDS011;28985;47.456;19.016;2022-07-29T04:22:50;67.32;;;64.55;;
42296;SDS011;28985;47.456;19.016;2022-07-29T04:25:16;73.40;;;70.40;;
42296;SDS011;28985;47.456;19.016;2022-07-29T04:27:43;64.05;;;61.55;;
42296;SDS011;28985;47.456;19.016;2022-07-29T04:30:26;66.50;;;63.75;;
42296;SDS011;28985;47.456;19.016;2022-07-29T04:32:53;62.20;;;59.30;;
42296;SDS011;28985;47.456;19.016;2022-07-29T04:35:19;65.35;;;62.60;;
42296;SDS011;28985;47.456;19.016;2022-07-29T04:37:46;56.70;;;54.25;;
42296;SDS011;28985;47.456;19.016;2022-07-29T04:40:13;62.20;;;59.60;;
42296;SDS011;28985;47.456;19.016;2022-07-29T04:42:40;65.57;;;62.58;;
42296;SDS011;28985;47.456;19.016;2022-07-29T04:45:13;59.55;;;57.05;;
42296;SDS011;28985;47.456;19.016;2022-07-29T04:47:41;71.47;;;68.03;;
42296;SDS011;28985;47.456;19.016;2022-07-29T04:50:08;74.22;;;71.00;;
42296;SDS011;28985;47.456;19.016;2022-07-29T04:52:35;69.75;;;66.85;;
42296;SDS011;28985;47.456;19.016;2022-07-29T04:55:03;71.03;;;67.80;;
42296;SDS011;28985;47.456;19.016;2022-07-29T04:57:30;67.35;;;64.60;;
42296;SDS011;28985;47.456;19.016;2022-07-29T04:59:57;67.82;;;64.85;;
42296;SDS011;28985;47.456;19.016;2022-07-29T05:02:24;63.38;;;60.60;;
42296;SDS011;28985;47.456;19.016;2022-07-29T05:04:50;69.38;;;66.35;;
42296;SDS011;28985;47.456;19.016;2022-07-29T05:07:17;69.03;;;66.03;;
42296;SDS011;28985;47.456;19.016;2022-07-29T05:09:43;67.43;;;64.53;;
42296;SDS011;28985;47.456;19.016;2022-07-29T05:12:10;84.07;;;80.47;;
42296;SDS011;28985;47.456;19.016;2022-07-29T05:14:38;65.03;;;62.33;;
42296;SDS011;28985;47.456;19.016;2022-07-29T05:17:04;77.32;;;74.18;;
42296;SDS011;28985;47.456;19.016;2022-07-29T05:19:31;70.07;;;67.10;;
42296;SDS011;28985;47.456;19.016;2022-07-29T05:21:58;80.85;;;77.45;;
42296;SDS011;28985;47.456;19.016;2022-07-29T05:24:26;82.88;;;79.47;;
42296;SDS011;28985;47.456;19.016;2022-07-29T05:26:53;87.25;;;83.55;;
42296;SDS011;28985;47.456;19.016;2022-07-29T05:29:19;70.82;;;68.05;;
42296;SDS011;28985;47.456;19.016;2022-07-29T05:32:06;67.03;;;64.32;;
42296;SDS011;28985;47.456;19.016;2022-07-29T05:34:32;69.30;;;66.57;;
42296;SDS011;28985;47.456;19.016;2022-07-29T05:36:59;67.85;;;65.05;;
42296;SDS011;28985;47.456;19.016;2022-07-29T05:39:26;70.82;;;67.93;;
42296;SDS011;28985;47.456;19.016;2022-07-29T05:42:12;74.72;;;71.50;;
42296;SDS011;28985;47.456;19.016;2022-07-29T05:44:39;75.70;;;72.53;;
42296;SDS011;28985;47.456;19.016;2022-07-29T05:47:06;68.22;;;65.40;;
42296;SDS011;28985;47.456;19.016;2022-07-29T05:49:32;68.93;;;66.20;;
42296;SDS011;28985;47.456;19.016;2022-07-29T05:51:59;69.85;;;67.15;;
42296;SDS011;28985;47.456;19.016;2022-07-29T05:54:26;70.90;;;68.10;;
42296;SDS011;28985;47.456;19.016;2022-07-29T05:56:52;86.32;;;82.90;;
42296;SDS011;28985;47.456;19.016;2022-07-29T05:59:19;79.80;;;76.60;;
42296;SDS011;28985;47.456;19.016;2022-07-29T06:01:45;84.03;;;80.53;;
42296;SDS011;28985;47.456;19.016;2022-07-29T06:04:12;84.20;;;80.53;;
42296;SDS011;28985;47.456;19.016;2022-07-29T06:06:39;99.80;;;95.82;;
42296;SDS011;28985;47.456;19.016;2022-07-29T06:09:06;81.20;;;77.63;;
42296;SDS011;28985;47.456;19.016;2022-07-29T06:11:37;78.18;;;75.05;;
42296;SDS011;28985;47.456;19.016;2022-07-29T06:14:04;82.45;;;78.90;;
42296;SDS011;28985;47.456;19.016;2022-07-29T06:16:30;74.00;;;70.80;;
42296;SDS011;28985;47.456;19.016;2022-07-29T06:18:57;73.18;;;70.28;;
42296;SDS011;28985;47.456;19.016;2022-07-29T06:21:24;78.30;;;74.43;;
42296;SDS011;28985;47.456;19.016;2022-07-29T06:23:50;77.28;;;74.05;;
42296;SDS011;28985;47.456;19.016;2022-07-29T06:26:17;96.95;;;93.13;;
42296;SDS011;28985;47.456;19.016;2022-07-29T06:28:56;76.43;;;73.25;;
42296;SDS011;28985;47.456;19.016;2022-07-29T06:31:23;79.57;;;76.40;;
42296;SDS011;28985;47.456;19.016;2022-07-29T06:33:50;78.43;;;75.05;;
42296;SDS011;28985;47.456;19.016;2022-07-29T06:36:19;74.70;;;71.50;;
42296;SDS011;28985;47.456;19.016;2022-07-29T06:38:48;74.10;;;70.95;;
42296;SDS011;28985;47.456;19.016;2022-07-29T06:41:17;76.47;;;73.03;;
42296;SDS011;28985;47.456;19.016;2022-07-29T06:43:44;81.30;;;78.00;;
42296;SDS011;28985;47.456;19.016;2022-07-29T06:46:17;81.10;;;77.70;;
42296;SDS011;28985;47.456;19.016;2022-07-29T06:48:46;90.30;;;86.32;;
42296;SDS011;28985;47.456;19.016;2022-07-29T06:51:16;93.35;;;89.13;;
42296;SDS011;28985;47.456;19.016;2022-07-29T06:53:48;80.68;;;77.45;;
42296;SDS011;28985;47.456;19.016;2022-07-29T06:56:27;86.78;;;83.18;;
42296;SDS011;28985;47.456;19.016;2022-07-29T06:58:54;84.05;;;80.60;;
42296;SDS011;28985;47.456;19.016;2022-07-29T07:01:21;90.43;;;86.63;;
42296;SDS011;28985;47.456;19.016;2022-07-29T07:03:48;105.40;;;101.15;;
42296;SDS011;28985;47.456;19.016;2022-07-29T07:06:15;109.53;;;104.80;;
42296;SDS011;28985;47.456;19.016;2022-07-29T07:08:41;98.05;;;94.20;;
42296;SDS011;28985;47.456;19.016;2022-07-29T07:11:08;114.80;;;110.45;;
42296;SDS011;28985;47.456;19.016;2022-07-29T07:13:35;143.23;;;137.52;;
42296;SDS011;28985;47.456;19.016;2022-07-29T07:16:02;121.50;;;116.65;;
42296;SDS011;28985;47.456;19.016;2022-07-29T07:18:29;119.70;;;114.60;;
42296;SDS011;28985;47.456;19.016;2022-07-29T07:20:56;129.07;;;123.78;;
42296;SDS011;28985;47.456;19.016;2022-07-29T07:23:23;137.93;;;132.57;;
42296;SDS011;28985;47.456;19.016;2022-07-29T07:25:50;181.93;;;174.80;;
42296;SDS011;28985;47.456;19.016;2022-07-29T07:28:18;176.63;;;169.30;;
42296;SDS011;28985;47.456;19.016;2022-07-29T07:30:50;160.77;;;154.23;;
42296;SDS011;28985;47.456;19.016;2022-07-29T07:33:17;157.00;;;150.57;;
42296;SDS011;28985;47.456;19.016;2022-07-29T07:35:44;194.88;;;187.25;;
42296;SDS011;28985;47.456;19.016;2022-07-29T07:38:10;167.50;;;160.75;;
42296;SDS011;28985;47.456;19.016;2022-07-29T07:40:37;193.15;;;185.77;;
42296;SDS011;28985;47.456;19.016;2022-07-29T07:43:04;192.30;;;184.82;;
42296;SDS011;28985;47.456;19.016;2022-07-29T07:45:30;196.68;;;189.13;;
42296;SDS011;28985;47.456;19.016;2022-07-29T07:47:59;222.55;;;213.93;;
42296;SDS011;28985;47.456;19.016;2022-07-29T07:50:25;201.23;;;193.35;;
42296;SDS011;28985;47.456;19.016;2022-07-29T07:52:53;209.55;;;201.27;;
42296;SDS011;28985;47.456;19.016;2022-07-29T07:55:24;209.90;;;201.95;;
42296;SDS011;28985;47.456;19.016;2022-07-29T07:57:51;215.80;;;207.35;;
42296;SDS011;28985;47.456;19.016;2022-07-29T08:00:18;212.13;;;203.93;;
42296;SDS011;28985;47.456;19.016;2022-07-29T08:02:48;233.82;;;224.77;;
42296;SDS011;28985;47.456;19.016;2022-07-29T08:05:16;200.75;;;193.05;;
42296;SDS011;28985;47.456;19.016;2022-07-29T08:07:46;197.68;;;189.77;;
42296;SDS011;28985;47.456;19.016;2022-07-29T08:10:16;191.02;;;183.50;;
42296;SDS011;28985;47.456;19.016;2022-07-29T08:13:07;238.75;;;229.55;;
42296;SDS011;28985;47.456;19.016;2022-07-29T08:15:34;253.75;;;243.88;;
42296;SDS011;28985;47.456;19.016;2022-07-29T08:18:01;259.25;;;249.10;;
42296;SDS011;28985;47.456;19.016;2022-07-29T08:20:34;246.30;;;236.70;;
42296;SDS011;28985;47.456;19.016;2022-07-29T08:23:02;197.20;;;189.50;;
42296;SDS011;28985;47.456;19.016;2022-07-29T08:25:30;206.05;;;198.18;;
42296;SDS011;28985;47.456;19.016;2022-07-29T08:27:56;213.73;;;205.48;;
42296;SDS011;28985;47.456;19.016;2022-07-29T08:30:23;188.13;;;180.48;;
42296;SDS011;28985;47.456;19.016;2022-07-29T08:32:50;187.30;;;179.60;;
42296;SDS011;28985;47.456;19.016;2022-07-29T08:35:21;204.98;;;196.77;;
42296;SDS011;28985;47.456;19.016;2022-07-29T08:37:49;245.77;;;236.25;;
42296;SDS011;28985;47.456;19.016;2022-07-29T08:40:16;190.02;;;182.77;;
42296;SDS011;28985;47.456;19.016;2022-07-29T08:42:43;222.52;;;213.75;;
42296;SDS011;28985;47.456;19.016;2022-07-29T08:45:10;263.10;;;252.82;;
42296;SDS011;28985;47.456;19.016;2022-07-29T08:47:38;232.45;;;223.27;;
42296;SDS011;28985;47.456;19.016;2022-07-29T08:50:09;189.40;;;182.00;;
42296;SDS011;28985;47.456;19.016;2022-07-29T08:52:37;197.00;;;189.27;;
42296;SDS011;28985;47.456;19.016;2022-07-29T08:55:06;255.18;;;245.30;;
42296;SDS011;28985;47.456;19.016;2022-07-29T08:57:34;228.77;;;219.77;;
42296;SDS011;28985;47.456;19.016;2022-07-29T09:00:06;222.43;;;213.55;;
42296;SDS011;28985;47.456;19.016;2022-07-29T09:02:40;234.63;;;225.55;;
42296;SDS011;28985;47.456;19.016;2022-07-29T09:05:13;218.90;;;210.55;;
42296;SDS011;28985;47.456;19.016;2022-07-29T09:07:40;267.00;;;256.48;;
42296;SDS011;28985;47.456;19.016;2022-07-29T09:10:09;270.58;;;259.95;;
42296;SDS011;28985;47.456;19.016;2022-07-29T09:12:36;240.68;;;231.38;;
42296;SDS011;28985;47.456;19.016;2022-07-29T09:15:03;284.60;;;273.30;;
42296;SDS011;28985;47.456;19.016;2022-07-29T09:17:43;257.23;;;247.13;;
42296;SDS011;28985;47.456;19.016;2022-07-29T09:20:12;291.85;;;280.38;;
42296;SDS011;28985;47.456;19.016;2022-07-29T09:22:40;305.10;;;292.95;;
42296;SDS011;28985;47.456;19.016;2022-07-29T09:25:07;282.48;;;271.38;;
42296;SDS011;28985;47.456;19.016;2022-07-29T09:27:34;272.33;;;261.80;;
42296;SDS011;28985;47.456;19.016;2022-07-29T09:30:05;273.95;;;263.35;;
42296;SDS011;28985;47.456;19.016;2022-07-29T09:32:33;267.30;;;257.10;;
42296;SDS011;28985;47.456;19.016;2022-07-29T09:35:20;248.90;;;238.70;;
42296;SDS011;28985;47.456;19.016;2022-07-29T09:37:48;231.27;;;222.13;;
42296;SDS011;28985;47.456;19.016;2022-07-29T09:40:26;219.65;;;211.10;;
42296;SDS011;28985;47.456;19.016;2022-07-29T09:42:54;217.43;;;208.48;;
42296;SDS011;28985;47.456;19.016;2022-07-29T09:45:28;222.00;;;213.27;;
42296;SDS011;28985;47.456;19.016;2022-07-29T09:48:17;204.45;;;195.95;;
42296;SDS011;28985;47.456;19.016;2022-07-29T09:50:48;206.25;;;198.05;;
42296;SDS011;28985;47.456;19.016;2022-07-29T09:56:04;190.50;;;183.30;;
42296;SDS011;28985;47.456;19.016;2022-07-29T09:58:31;185.35;;;177.95;;
42296;SDS011;28985;47.456;19.016;2022-07-29T10:01:01;184.02;;;176.90;;
42296;SDS011;28985;47.456;19.016;2022-07-29T10:03:28;175.50;;;168.43;;
42296;SDS011;28985;47.456;19.016;2022-07-29T10:06:04;165.00;;;158.45;;
42296;SDS011;28985;47.456;19.016;2022-07-29T10:08:32;158.93;;;152.68;;
42296;SDS011;28985;47.456;19.016;2022-07-29T10:11:12;163.65;;;157.20;;
42296;SDS011;28985;47.456;19.016;2022-07-29T10:13:41;167.13;;;160.55;;
42296;SDS011;28985;47.456;19.016;2022-07-29T10:16:08;172.80;;;165.85;;
42296;SDS011;28985;47.456;19.016;2022-07-29T10:18:37;195.77;;;188.20;;
42296;SDS011;28985;47.456;19.016;2022-07-29T10:21:05;193.88;;;186.30;;
42296;SDS011;28985;47.456;19.016;2022-07-29T10:23:33;183.63;;;176.25;;
42296;SDS011;28985;47.456;19.016;2022-07-29T10:26:12;194.07;;;186.70;;
42296;SDS011;28985;47.456;19.016;2022-07-29T10:28:39;200.57;;;192.95;;
42296;SDS011;28985;47.456;19.016;2022-07-29T10:31:06;175.38;;;168.65;;
42296;SDS011;28985;47.456;19.016;2022-07-29T10:44:59;122.88;;;118.13;;
42296;SDS011;28985;47.456;19.016;2022-07-29T10:47:26;97.63;;;93.88;;
42296;SDS011;28985;47.456;19.016;2022-07-29T10:50:00;122.95;;;118.25;;
42296;SDS011;28985;47.456;19.016;2022-07-29T10:55:34;108.70;;;104.43;;
42296;SDS011;28985;47.456;19.016;2022-07-29T10:58:18;74.75;;;71.80;;
42296;SDS011;28985;47.456;19.016;2022-07-29T11:00:47;67.35;;;64.60;;
42296;SDS011;28985;47.456;19.016;2022-07-29T11:06:16;63.50;;;60.83;;
42296;SDS011;28985;47.456;19.016;2022-07-29T11:12:00;35.20;;;33.58;;
42296;SDS011;28985;47.456;19.016;2022-07-29T11:17:21;32.65;;;31.35;;
42296;SDS011;28985;47.456;19.016;2022-07-29T11:19:49;28.48;;;27.27;;
42296;SDS011;28985;47.456;19.016;2022-07-29T11:22:33;39.05;;;37.42;;
42296;SDS011;28985;47.456;19.016;2022-07-29T11:25:16;28.88;;;27.67;;
42296;SDS011;28985;47.456;19.016;2022-07-29T11:28:12;28.98;;;27.58;;
42296;SDS011;28985;47.456;19.016;2022-07-29T11:30:50;27.70;;;26.60;;
42296;SDS011;28985;47.456;19.016;2022-07-29T11:33:31;28.10;;;26.80;;
42296;SDS011;28985;47.456;19.016;2022-07-29T11:36:18;27.20;;;26.00;;
42296;SDS011;28985;47.456;19.016;2022-07-29T11:38:53;26.00;;;24.90;;
42296;SDS011;28985;47.456;19.016;2022-07-29T11:48:04;28.42;;;27.25;;
42296;SDS011;28985;47.456;19.016;2022-07-29T11:50:51;29.52;;;28.02;;
42296;SDS011;28985;47.456;19.016;2022-07-29T11:53:18;40.78;;;37.20;;
42296;SDS011;28985;47.456;19.016;2022-07-29T11:55:45;32.63;;;31.27;;
42296;SDS011;28985;47.456;19.016;2022-07-29T11:58:23;29.33;;;28.02;;
42296;SDS011;28985;47.456;19.016;2022-07-29T12:00:51;30.02;;;28.73;;
42296;SDS011;28985;47.456;19.016;2022-07-29T12:03:25;30.23;;;28.95;;
42296;SDS011;28985;47.456;19.016;2022-07-29T12:06:00;26.70;;;25.58;;
42296;SDS011;28985;47.456;19.016;2022-07-29T12:08:27;27.58;;;26.48;;
42296;SDS011;28985;47.456;19.016;2022-07-29T12:10:54;29.75;;;28.35;;
42296;SDS011;28985;47.456;19.016;2022-07-29T12:13:21;27.75;;;26.35;;
42296;SDS011;28985;47.456;19.016;2022-07-29T12:16:03;26.33;;;25.35;;
42296;SDS011;28985;47.456;19.016;2022-07-29T12:18:30;28.88;;;27.00;;
42296;SDS011;28985;47.456;19.016;2022-07-29T12:21:01;27.38;;;26.35;;
42296;SDS011;28985;47.456;19.016;2022-07-29T12:23:33;32.25;;;30.48;;
42296;SDS011;28985;47.456;19.016;2022-07-29T12:26:03;28.52;;;27.42;;
42296;SDS011;28985;47.456;19.016;2022-07-29T12:28:38;28.42;;;27.02;;
42296;SDS011;28985;47.456;19.016;2022-07-29T12:31:05;31.20;;;29.70;;
42296;SDS011;28985;47.456;19.016;2022-07-29T12:34:01;28.73;;;27.40;;
42296;SDS011;28985;47.456;19.016;2022-07-29T12:36:28;28.42;;;27.17;;
42296;SDS011;28985;47.456;19.016;2022-07-29T12:38:55;28.42;;;27.17;;
42296;SDS011;28985;47.456;19.016;2022-07-29T12:41:21;31.45;;;30.15;;
42296;SDS011;28985;47.456;19.016;2022-07-29T12:43:54;27.25;;;25.98;;
42296;SDS011;28985;47.456;19.016;2022-07-29T12:46:22;24.02;;;23.08;;
42296;SDS011;28985;47.456;19.016;2022-07-29T12:48:52;24.08;;;22.73;;
42296;SDS011;28985;47.456;19.016;2022-07-29T12:51:34;24.58;;;23.40;;
42296;SDS011;28985;47.456;19.016;2022-07-29T12:54:09;23.67;;;22.58;;
42296;SDS011;28985;47.456;19.016;2022-07-29T12:56:39;23.98;;;22.98;;
42296;SDS011;28985;47.456;19.016;2022-07-29T12:59:17;23.45;;;22.55;;
42296;SDS011;28985;47.456;19.016;2022-07-29T13:01:46;24.85;;;23.75;;
42296;SDS011;28985;47.456;19.016;2022-07-29T13:04:39;24.10;;;23.00;;
42296;SDS011;28985;47.456;19.016;2022-07-29T13:07:03;25.40;;;24.35;;
42296;SDS011;28985;47.456;19.016;2022-07-29T13:09:41;26.65;;;25.02;;
42296;SDS011;28985;47.456;19.016;2022-07-29T13:12:10;27.65;;;26.42;;
42296;SDS011;28985;47.456;19.016;2022-07-29T13:17:10;26.98;;;25.67;;
42296;SDS011;28985;47.456;19.016;2022-07-29T13:22:17;33.88;;;32.38;;
42296;SDS011;28985;47.456;19.016;2022-07-29T13:24:49;27.67;;;26.48;;
42296;SDS011;28985;47.456;19.016;2022-07-29T13:27:17;29.40;;;28.00;;
42296;SDS011;28985;47.456;19.016;2022-07-29T13:29:45;29.50;;;28.15;;
42296;SDS011;28985;47.456;19.016;2022-07-29T13:32:12;28.23;;;27.00;;
42296;SDS011;28985;47.456;19.016;2022-07-29T13:34:39;30.35;;;28.92;;
42296;SDS011;28985;47.456;19.016;2022-07-29T13:37:06;28.83;;;27.73;;
42296;SDS011;28985;47.456;19.016;2022-07-29T13:39:33;27.20;;;26.20;;
42296;SDS011;28985;47.456;19.016;2022-07-29T13:42:00;24.85;;;23.77;;
42296;SDS011;28985;47.456;19.016;2022-07-29T13:44:27;26.45;;;25.45;;
42296;SDS011;28985;47.456;19.016;2022-07-29T13:46:53;23.42;;;22.42;;
42296;SDS011;28985;47.456;19.016;2022-07-29T13:49:20;25.50;;;24.50;;
42296;SDS011;28985;47.456;19.016;2022-07-29T13:51:47;27.90;;;26.85;;
42296;SDS011;28985;47.456;19.016;2022-07-29T13:54:13;25.42;;;24.45;;
42296;SDS011;28985;47.456;19.016;2022-07-29T13:56:40;24.63;;;23.63;;
42296;SDS011;28985;47.456;19.016;2022-07-29T13:59:07;22.75;;;21.77;;
42296;SDS011;28985;47.456;19.016;2022-07-29T14:01:34;22.83;;;21.67;;
42296;SDS011;28985;47.456;19.016;2022-07-29T14:04:01;22.55;;;21.50;;
42296;SDS011;28985;47.456;19.016;2022-07-29T14:06:28;23.48;;;22.15;;
42296;SDS011;28985;47.456;19.016;2022-07-29T14:08:55;24.05;;;22.95;;
42296;SDS011;28985;47.456;19.016;2022-07-29T14:11:22;23.60;;;22.50;;
42296;SDS011;28985;47.456;19.016;2022-07-29T14:13:48;23.02;;;22.00;;
42296;SDS011;28985;47.456;19.016;2022-07-29T14:16:15;23.98;;;22.88;;
42296;SDS011;28985;47.456;19.016;2022-07-29T14:18:42;23.60;;;22.40;;
42296;SDS011;28985;47.456;19.016;2022-07-29T14:21:08;23.25;;;22.35;;
42296;SDS011;28985;47.456;19.016;2022-07-29T14:23:36;28.42;;;27.25;;
42296;SDS011;28985;47.456;19.016;2022-07-29T14:26:07;28.95;;;27.73;;
42296;SDS011;28985;47.456;19.016;2022-07-29T14:28:41;28.40;;;27.20;;
42296;SDS011;28985;47.456;19.016;2022-07-29T14:31:07;31.17;;;29.73;;
42296;SDS011;28985;47.456;19.016;2022-07-29T14:33:34;29.10;;;27.83;;
42296;SDS011;28985;47.456;19.016;2022-07-29T14:36:00;29.60;;;28.13;;
42296;SDS011;28985;47.456;19.016;2022-07-29T14:38:27;26.35;;;25.35;;
42296;SDS011;28985;47.456;19.016;2022-07-29T14:40:54;24.25;;;23.10;;
42296;SDS011;28985;47.456;19.016;2022-07-29T14:43:21;26.10;;;25.10;;
42296;SDS011;28985;47.456;19.016;2022-07-29T14:45:47;24.88;;;23.73;;
42296;SDS011;28985;47.456;19.016;2022-07-29T14:48:14;23.40;;;22.50;;
42296;SDS011;28985;47.456;19.016;2022-07-29T14:50:41;23.58;;;22.58;;
42296;SDS011;28985;47.456;19.016;2022-07-29T14:53:07;22.88;;;21.88;;
42296;SDS011;28985;47.456;19.016;2022-07-29T14:55:34;22.75;;;21.75;;
42296;SDS011;28985;47.456;19.016;2022-07-29T14:58:01;23.05;;;22.05;;
42296;SDS011;28985;47.456;19.016;2022-07-29T15:00:37;20.67;;;19.73;;
42296;SDS011;28985;47.456;19.016;2022-07-29T15:03:04;20.48;;;19.30;;
42296;SDS011;28985;47.456;19.016;2022-07-29T15:05:31;20.95;;;20.15;;
42296;SDS011;28985;47.456;19.016;2022-07-29T15:07:58;21.67;;;20.80;;
42296;SDS011;28985;47.456;19.016;2022-07-29T15:10:25;22.70;;;21.80;;